Tiempo atmosférico en la estación meteorológica de Luzaide/Valcarlos, Navarra (334 m.)



Fecha
DESCASC
Temp. máxima en grados centígrados (hora)
DESCASC
Temp. mínima en grados centígrados (hora)
DESCASC
Temp. media en grados centígrados
DESCASC
Racha de viento máxima en m/sg (hora)
DESCASC
Velocidad máxima media en intervalos de 10 minutos(hora)
DESCASC
Precipitaciones diarias en mm
DESCASC
Precipitaciones de 00:00 a 06:00 en mm
DESCASC
Precipitaciones de 06:00 a 12:00 en mm
DESCASC
Precipitaciones de 12:00 a 18:00 en mm
DESCASC
Precipitaciones de 18:00 a 24:00 en mm
DESCASC
16-01-2020 17.5 (15:00) 9.1 (01:20) 13.3 15.83 (23:20) 8.06 (23:30) 0 0 0 0 0
15-01-2020 14.8 (13:20) 8.9 (23:00) 11.8 18.06 (06:30) 9.72 (06:30) 0 0 0 0 0
14-01-2020 14.4 (13:10) 9.4 (08:30) 11.9 17.22 (16:40) 9.17 (21:50) 0 0 0 0 0
13-01-2020 14.5 (16:00) 1.6 (01:10) 8.1 12.22 (20:10) 5.56 (20:10) 0 0 0 0 0
12-01-2020 9.8 (15:40) -0.1 (00:00) 4.9 5 (13:30) 3.33 (13:30) 0 0 0 0 0
11-01-2020 9.3 (12:40) 1.1 (00:00) 5.2 4.72 (13:50) 3.61 (14:40) 0 0 0 0 0
10-01-2020 8.8 (16:00) 5.2 (00:00) 7 9.72 (16:20) 4.17 (03:20) 23.6 6.2 12.4 3.4 1.6
09-01-2020 18.3 (12:50) 5 (00:00) 11.6 16.94 (15:10) 7.22 (16:10) 1.8 0 0 0 1.8
08-01-2020 14.5 (16:10) 4.7 (00:00) 9.6 4.72 (14:50) 3.06 (14:40) 0 0 0 0 0
07-01-2020 13.5 (13:20) 5 (00:00) 9.3 6.11 (13:40) 4.17 (13:40) 0 0 0 0 0
06-01-2020 11.5 (14:40) 0.7 (00:00) 6.1 7.5 (15:00) 5 (15:20) 0 0 0 0 0
05-01-2020 9.4 (14:30) 3 (00:00) 6.2 5.56 (15:40) 3.89 (15:50) 0 0 0 0 0
04-01-2020 9 (13:30) 6.1 (00:00) 7.5 5 (14:30) 3.06 (12:30) 5 2.2 2.4 0.4 0
03-01-2020 10.7 (14:10) 2.7 (00:00) 6.7 3.33 (16:10) 1.67 (14:30) 0 0 0 0 0
02-01-2020 19.2 (14:10) 0.9 (00:00) 10.1 8.33 (11:40) 3.61 (11:40) 0 0 0 0 0
01-01-2020 11.5 (13:00) 2.9 (00:00) 7.2 5 (14:40) 3.61 (14:30) 0 0 0 0 0
31-12-2019 11.6 (12:30) 2.8 (00:00) 7.2 5.28 (14:50) 3.89 (14:30) 0 0 0 0 0
30-12-2019 -- (--) -- (--) -- -- (--) -- (--) -- 0 0 0 --
29-12-2019 13.4 (12:30) 2.9 (00:00) 8.1 3.33 (13:40) 2.22 (13:40) 0 0 0 0 0
28-12-2019 10.3 (15:40) 2.1 (00:00) 6.2 5 (15:00) 3.33 (14:40) 0 0 0 0 0
27-12-2019 11.4 (15:30) 2.3 (00:00) 6.8 5 (13:50) 3.61 (13:50) 0 0 0 0 0
26-12-2019 17.8 (03:10) 4.2 (00:00) 11 10.83 (03:00) 5.28 (02:40) 0.8 0 0.8 0 0
25-12-2019 18.6 (15:00) 6.5 (00:00) 12.6 11.11 (21:50) 5.56 (22:20) 0 0 0 0 0
24-12-2019 20.4 (14:50) 9.3 (00:00) 14.8 7.78 (04:30) 4.17 (04:30) 0 0 0 0 0
23-12-2019 14 (13:20) 7.9 (00:00) 11 11.39 (03:00) 4.17 (18:30) 5.2 5.2 0 0 0
22-12-2019 13.5 (00:00) 8.6 (00:00) 11.1 15.83 (17:10) 5.56 (12:40) 24 6.2 0.4 3.6 13.8
21-12-2019 17.8 (15:10) 7.7 (00:00) 12.7 16.39 (19:40) 6.67 (13:00) 4.6 3.8 0 0.6 0.2
20-12-2019 16.9 (03:40) 8.7 (00:00) 12.8 23.33 (02:00) 10.56 (01:40) 23.6 16 0 1.8 5.8

Gráficas

Temp. máximas Temp. mínimas Temp. medias Precipitaciones Rachas de viento máximas Velocidades máximas media en intervalos de 10 minutos

Datos horarios

Fecha y hora oficial Temperatura (ºC) Velocidad del viento (km/h) Dirección del viento Racha (km/h) Dirección de racha Precipitación (mm) Presión (hPa) Tendencia (hPa) Humedad (%)
2020-01-18 23:00:00 6.6 7 Sur 17 Sur 1.2 -- -- 89
2020-01-18 22:00:00 7.1 8 Sudoeste 15 Sur 2.4 -- -- 88
2020-01-18 21:00:00 8.2 4 Sur 16 Sur 2.6 -- -- 87
2020-01-18 20:00:00 9.3 12 Sudoeste 41 Sur 1.4 -- -- 74
2020-01-18 19:00:00 10 12 Sur 43 Sudoeste 0.2 -- -- 71
2020-01-18 18:00:00 11.6 14 Sudoeste 35 Sudoeste 0 -- -- 57
2020-01-18 17:00:00 12 10 Sur 39 Sudoeste 0 -- -- 54
2020-01-18 16:00:00 12.7 18 Sudoeste 43 Sudoeste 0 -- -- 52
2020-01-18 15:00:00 12.9 14 Sudoeste 38 Sudoeste 0 -- -- 50
2020-01-18 14:00:00 13.9 8 Sur 42 Sur 0 -- -- 46
2020-01-18 13:00:00 12.5 12 Sur 39 Sudoeste 0 -- -- 51
2020-01-18 12:00:00 13 9 Sudoeste 26 Oeste 0 -- -- 48
2020-01-18 11:00:00 9.8 12 Sur 31 Sudoeste 0 -- -- 57
2020-01-18 10:00:00 6.5 3 Norte 7 Sudoeste 0 -- -- 85
2020-01-18 09:00:00 4.7 5 Sur 7 Sur 0 -- -- 95
2020-01-18 08:00:00 4.2 0 Calma 9 Norte 0 -- -- 94
2020-01-18 07:00:00 4.5 2 Sur 5 Sur 0 -- -- 94
2020-01-18 06:00:00 4.2 0 Calma 7 Sur 0 -- -- 94
2020-01-18 05:00:00 3.9 0 Calma 13 Sur 0 -- -- 94
2020-01-18 04:00:00 3.5 2 Sudoeste 5 Sudoeste 0 -- -- 95
2020-01-18 03:00:00 2.8 0 Calma 6 Sur 0 -- -- 95
2020-01-18 02:00:00 2.8 4 Sur 7 Sur 0 -- -- 95
2020-01-18 01:00:00 3.3 2 Sur 6 Sur 0 -- -- 95
2020-01-18 00:00:00 4.1 4 Sur 8 Sudoeste 0 -- -- 94
2020-01-17 23:00:00 5.2 3 Sudeste 6 Sudoeste 0.4 -- -- 95
2020-01-17 22:00:00 4.9 0 Calma 10 Sudeste 0 -- -- 93
2020-01-17 21:00:00 5.3 5 Sur 12 Sur 0.2 -- -- 92
2020-01-17 20:00:00 6.8 5 Norte 16 Norte 0.6 -- -- 83
2020-01-17 19:00:00 7.7 6 Sur 24 Sur 0 -- -- 76
2020-01-17 18:00:00 7.4 2 Nordeste 19 Sudoeste 0.2 -- -- 83
2020-01-17 17:00:00 9.3 6 Sudoeste 22 Oeste 0.2 -- -- 67
2020-01-17 16:00:00 9.9 6 Sudeste 24 Este 0 -- -- 68
2020-01-17 15:00:00 9.6 5 Sur 31 Sur 0 -- -- 70
2020-01-17 14:00:00 9.5 10 Sur 24 Sur 0 -- -- 72
2020-01-17 13:00:00 8.9 7 Este 18 Sudeste 0.4 -- -- 79
2020-01-17 12:00:00 8.2 6 Sur 19 Sudoeste 1.4 -- -- 84
2020-01-17 11:00:00 8.3 6 Sur 29 Sudoeste 2.8 -- -- 85
2020-01-17 10:00:00 8.9 5 Oeste 22 Noroeste 1.4 -- -- 84
2020-01-17 09:00:00 10.8 6 Sur 26 Sudoeste 0 -- -- 73
2020-01-17 08:00:00 11.6 9 Sur 34 Sur 0 -- -- 63
2020-01-17 07:00:00 11.9 16 Sur 35 Sur 0 -- -- 62
2020-01-17 06:00:00 11.9 12 Sudoeste 32 Sur 0 -- -- 62
2020-01-17 05:00:00 12.4 12 Sudoeste 41 Sur 0 -- -- 60
2020-01-17 04:00:00 13 16 Sur 38 Sudoeste 0 -- -- 58
2020-01-17 03:00:00 13.5 15 Sudoeste 40 Sur 0 -- -- 56
2020-01-17 02:00:00 13.8 12 Sudoeste 64 Sur 0 -- -- 53
2020-01-17 01:00:00 14.6 10 Sur 59 Sudoeste 0 -- -- 49
2020-01-17 00:00:00 14.9 26 Sur 57 Sudeste 0 -- -- 45
2020-01-16 23:00:00 14.8 13 Sudoeste 42 Sudoeste 0 -- -- 51
2020-01-16 22:00:00 14.9 13 Sur 39 Sudoeste 0 -- -- 54
2020-01-16 21:00:00 15 17 Sur 50 Sur 0 -- -- 55
2020-01-16 20:00:00 14.9 13 Sudoeste 37 Sudoeste 0 -- -- 57
2020-01-16 19:00:00 14.4 9 Sudoeste 28 Sur 0 -- -- 59
2020-01-16 18:00:00 14.8 7 Sudoeste 33 Sudoeste 0 -- -- 58
2020-01-16 17:00:00 15.4 12 Sur 36 Sudoeste 0 -- -- 55
2020-01-16 16:00:00 16.8 9 Sudoeste 29 Sudoeste 0 -- -- 50
2020-01-16 15:00:00 17.5 11 Sur 27 Sudoeste 0 -- -- 49
2020-01-16 14:00:00 17.2 6 Sudoeste 27 Sur 0 -- -- 52
2020-01-16 13:00:00 16.5 15 Sudoeste 44 Sudoeste 0 -- -- 52
2020-01-16 12:00:00 16.5 21 Sudoeste 46 Sudoeste 0 -- -- 52
2020-01-16 11:00:00 15.8 15 Sudoeste 39 Sur 0 -- -- 53
2020-01-16 10:00:00 13.8 16 Sur 42 Sur 0 -- -- 54
2020-01-16 09:00:00 13.5 23 Sudoeste 41 Sudoeste 0 -- -- 54
2020-01-16 08:00:00 12.4 7 Noroeste 22 Sudoeste 0 -- -- 60
2020-01-16 07:00:00 11.6 4 Sur 28 Sur 0 -- -- 62
2020-01-16 06:00:00 12.7 14 Sur 41 Sudoeste 0 -- -- 58
2020-01-16 05:00:00 12.4 15 Sudoeste 30 Sudoeste 0 -- -- 58
2020-01-16 04:00:00 12.1 15 Sur 37 Sur 0 -- -- 57
2020-01-16 03:00:00 11.9 13 Sudoeste 31 Sudoeste 0 -- -- 57
2020-01-16 02:00:00 10.9 6 Sudoeste 19 Sudoeste 0 -- -- 61
2020-01-16 01:00:00 9.4 5 Sur 10 Sudoeste 0 -- -- 68
2020-01-16 00:00:00 9.4 5 Sur 11 Sudoeste 0 -- -- 69
2020-01-15 23:00:00 8.9 5 Sur 10 Sudoeste 0 -- -- 70
2020-01-15 22:00:00 10.4 4 Sudoeste 12 Sudoeste 0 -- -- 64
2020-01-15 21:00:00 10.9 3 Sudoeste 9 Sudoeste 0 -- -- 61
2020-01-15 20:00:00 11.1 5 Sudoeste 11 Sudoeste 0 -- -- 60
2020-01-15 19:00:00 12 3 Sur 24 Sudoeste 0 -- -- 57
2020-01-15 18:00:00 12.7 8 Sudoeste 26 Sudoeste 0 -- -- 55
2020-01-15 17:00:00 13.3 14 Sur 29 Sudoeste 0 -- -- 52
2020-01-15 16:00:00 14 13 Sur 37 Sudoeste 0 -- -- 50
2020-01-15 15:00:00 14.2 19 Sudoeste 45 Sudoeste 0 -- -- 48
2020-01-15 14:00:00 14.3 17 Sur 49 Sur 0 -- -- 47
2020-01-15 13:00:00 14.4 21 Sudoeste 52 Sur 0 -- -- 47
2020-01-15 12:00:00 13.2 21 Sudoeste 51 Sur 0 -- -- 49
2020-01-15 11:00:00 12.4 19 Sudoeste 47 Sudoeste 0 -- -- 51
2020-01-15 10:00:00 12.2 20 Sudoeste 50 Sudeste 0 -- -- 51
2020-01-15 09:00:00 11.5 17 Sudoeste 49 Sudoeste 0 -- -- 53
2020-01-15 08:00:00 11.2 22 Sudoeste 58 Sur 0 -- -- 51
2020-01-15 07:00:00 11.1 32 Sur 65 Sur 0 -- -- 52
2020-01-15 06:00:00 11 29 Sudoeste 55 Sudoeste 0 -- -- 52
2020-01-15 05:00:00 11.3 20 Sudoeste 43 Sudoeste 0 -- -- 52
2020-01-15 04:00:00 11 17 Sudoeste 39 Sudoeste 0 -- -- 50
2020-01-15 03:00:00 11 15 Sudoeste 33 Sudoeste 0 -- -- 49
2020-01-15 02:00:00 10.9 13 Sudoeste 44 Sudoeste 0 -- -- 50
2020-01-15 01:00:00 10.8 17 Sudoeste 41 Sudoeste 0 -- -- 49
2020-01-15 00:00:00 10.8 12 Sudoeste 44 Sudoeste 0 -- -- 48
2020-01-14 23:00:00 10.5 10 Sudoeste 45 Sudoeste 0 -- -- 47
2020-01-14 22:00:00 11.2 32 Sur 62 Sudoeste 0 -- -- 42
2020-01-14 21:00:00 11.6 20 Sudoeste 58 Sur 0 -- -- 45
2020-01-14 20:00:00 12.2 23 Sudoeste 55 Sudoeste 0 -- -- 40
2020-01-14 19:00:00 12.4 20 Sur 57 Sudoeste 0 -- -- 40
2020-01-14 18:00:00 12.8 23 Sudoeste 54 Sudoeste 0 -- -- 37
2020-01-14 17:00:00 13.1 30 Sudoeste 62 Sur 0 -- -- 35
2020-01-14 16:00:00 13.7 19 Sudoeste 57 Sudoeste 0 -- -- 37
2020-01-14 15:00:00 14.1 23 Sur 54 Sur 0 -- -- 37
2020-01-14 14:00:00 14 31 Sur 55 Sur 0 -- -- 36
2020-01-14 13:00:00 14.2 15 Sur 52 Sudoeste 0 -- -- 37
2020-01-14 12:00:00 13.7 19 Sur 49 Sudoeste 0 -- -- 35
2020-01-14 11:00:00 11.2 16 Sur 41 Sur 0 -- -- 40
2020-01-14 10:00:00 10.9 13 Sudeste 36 Sur 0 -- -- 44
2020-01-14 09:00:00 9.8 5 Sudeste 23 Sur 0 -- -- 43
2020-01-14 08:00:00 9.6 9 Sur 19 Sur 0 -- -- 42
2020-01-14 07:00:00 9.5 5 Nordeste 19 Sur 0 -- -- 44
2020-01-14 06:00:00 10.8 8 Sur 41 Sur 0 -- -- 41
2020-01-14 05:00:00 11.3 17 Sur 41 Sur 0 -- -- 38
2020-01-14 04:00:00 11.6 14 Sur 45 Sur 0 -- -- 36
2020-01-14 03:00:00 10.9 19 Sudoeste 44 Sudoeste 0 -- -- 38
2020-01-14 02:00:00 10.5 22 Sudoeste 44 Sudoeste 0 -- -- 39
2020-01-14 01:00:00 10.3 13 Sudoeste 33 Sudoeste 0 -- -- 40
2020-01-14 00:00:00 11.5 15 Sudoeste 44 Sudoeste 0 -- -- 33
2020-01-13 23:00:00 11.5 13 Sudoeste 41 Sudoeste 0 -- -- 36
2020-01-13 22:00:00 11.8 19 Sudoeste 41 Sudoeste 0 -- -- 36
2020-01-13 21:00:00 12 18 Sudoeste 44 Sudoeste 0 -- -- 35
2020-01-13 20:00:00 12.3 19 Sudoeste 40 Sudoeste 0 -- -- 35
2020-01-13 19:00:00 11.9 10 Sur 23 Sur 0 -- -- 38
2020-01-13 18:00:00 12.5 7 Sur 22 Sudoeste 0 -- -- 35
2020-01-13 17:00:00 13.3 12 Sudoeste 30 Sur 0 -- -- 33
2020-01-13 16:00:00 14.5 17 Sudoeste 34 Sur 0 -- -- 32
2020-01-13 15:00:00 13.5 11 Sur 26 Sur 0 -- -- 38
2020-01-13 14:00:00 13.7 9 Sur 40 Sur 0 -- -- 38
2020-01-13 13:00:00 14.4 10 Sur 39 Sudoeste 0 -- -- 42
2020-01-13 12:00:00 12.9 11 Sudoeste 29 Sudoeste 0 -- -- 40
2020-01-13 11:00:00 11.3 8 Sur 22 Sudoeste 0 -- -- 47
2020-01-13 10:00:00 7.3 4 Sudoeste 15 Sur 0 -- -- 65
2020-01-13 09:00:00 6.5 9 Sur 15 Sur 0 -- -- 61
2020-01-13 08:00:00 4.1 7 Sur 13 Sur 0 -- -- 73
2020-01-13 07:00:00 1.9 4 Sur 6 Sudoeste 0 -- -- 87
2020-01-13 06:00:00 2 3 Sur 6 Sur 0 -- -- 84
2020-01-13 05:00:00 2.3 4 Sur 8 Sur 0 -- -- 84
2020-01-13 04:00:00 2.9 5 Sur 12 Sudoeste 0 -- -- 82
2020-01-13 03:00:00 2.9 4 Sur 7 Sudoeste 0 -- -- 84
2020-01-13 02:00:00 1.8 3 Sur 5 Sur 0 -- -- 89
2020-01-13 01:00:00 1.8 0 Calma 6 Sur 0 -- -- 89
2020-01-13 00:00:00 2.1 4 Sur 6 Sur 0 -- -- 93
2020-01-12 23:00:00 2.3 2 Sur 6 Sur 0 -- -- 93
2020-01-12 22:00:00 2.9 0 Calma 7 Sudoeste 0 -- -- 93
2020-01-12 21:00:00 3.4 3 Sudeste 5 Sur 0 -- -- 92
2020-01-12 20:00:00 3.8 3 Sur 10 Sudoeste 0 -- -- 91
2020-01-12 19:00:00 4.9 4 Sur 7 Sudoeste 0 -- -- 87
2020-01-12 18:00:00 6.6 3 Sur 6 Sur 0 -- -- 83
2020-01-12 17:00:00 8.3 3 Sur 15 Norte 0 -- -- 75
2020-01-12 16:00:00 9.8 8 Norte 16 Noroeste 0 -- -- 67
2020-01-12 15:00:00 9.6 9 Norte 14 Norte 0 -- -- 67
2020-01-12 14:00:00 9.1 9 Norte 18 Norte 0 -- -- 65
2020-01-12 13:00:00 8.6 7 Norte 9 Norte 0 -- -- 63
2020-01-12 12:00:00 7.4 4 Sur 10 Sur 0 -- -- 71
2020-01-12 11:00:00 3.2 5 Sur 8 Sur 0 -- -- 88
2020-01-12 10:00:00 0.1 0 Calma 5 Sur 0 -- -- 90
2020-01-12 09:00:00 0.1 0 Calma 4 Sur 0 -- -- 89
2020-01-12 08:00:00 0.5 3 Sur 7 Sur 0 -- -- 88
2020-01-12 07:00:00 0.1 0 Calma 4 Sur 0 -- -- 90
2020-01-12 06:00:00 0.4 4 Sur 5 Sur 0 -- -- 91
2020-01-12 05:00:00 0.3 0 Calma 7 Sudoeste 0 -- -- 92
2020-01-12 04:00:00 0.3 3 Sudoeste 6 Sudoeste 0 -- -- 94
2020-01-12 03:00:00 0.4 3 Sur 5 Sur 0 -- -- 94
2020-01-12 02:00:00 0.4 0 Calma 4 Sur 0 -- -- 94
2020-01-12 01:00:00 1.1 3 Sur 10 Sudoeste 0 -- -- 95
2020-01-12 00:00:00 1.2 3 Sur 8 Sur 0 -- -- 95
2020-01-11 23:00:00 1.6 2 Sur 8 Sur 0 -- -- 94
2020-01-11 22:00:00 2.2 3 Sur 5 Sur 0 -- -- 94
2020-01-11 21:00:00 2.4 4 Sur 7 Sur 0 -- -- 94
2020-01-11 20:00:00 2.9 2 Sur 6 Sur 0 -- -- 91
2020-01-11 19:00:00 3.6 2 Sudeste 7 Sudoeste 0 -- -- 89
2020-01-11 18:00:00 5 4 Sur 7 Sur 0 -- -- 85
2020-01-11 17:00:00 7 3 Sur 10 Norte 0 -- -- 76
2020-01-11 16:00:00 9.1 8 Norte 14 Norte 0 -- -- 65
2020-01-11 15:00:00 9.1 10 Norte 16 Norte 0 -- -- 64
2020-01-11 14:00:00 9.2 10 Norte 17 Norte 0 -- -- 64
2020-01-11 13:00:00 9.2 3 Norte 8 Norte 0 -- -- 76
2020-01-11 12:00:00 7.7 4 Sur 7 Sur 0 -- -- 89
2020-01-11 11:00:00 3.8 4 Sur 9 Sur 0 -- -- 100
2020-01-11 10:00:00 1.4 2 Sudoeste 4 Sur 0 -- -- 99
2020-01-11 09:00:00 1.3 0 Calma 3 Sudoeste 0 -- -- 99
2020-01-11 08:00:00 1.6 3 Sur 6 Sur 0 -- -- 99
2020-01-11 07:00:00 2.1 2 Sudoeste 5 Sur 0 -- -- 98
2020-01-11 06:00:00 2.6 0 Calma 4 Sudoeste 0 -- -- 98
2020-01-11 05:00:00 3.4 0 Calma 8 Sudoeste 0 -- -- 98
2020-01-11 04:00:00 3.8 2 Sur 4 Sur 0 -- -- 98
2020-01-11 03:00:00 3.4 0 Calma 5 Sur 0 -- -- 97
2020-01-11 02:00:00 4.3 0 Calma 5 Sudeste 0 -- -- 97
2020-01-11 01:00:00 6.1 2 Sur 4 Sur 0 -- -- 98
2020-01-11 00:00:00 6.6 0 Calma 12 Norte 0 -- -- 98
2020-01-10 23:00:00 6.9 7 Norte 14 Noroeste 0 -- -- 97
2020-01-10 22:00:00 7 8 Norte 14 Noroeste 0 -- -- 97
2020-01-10 21:00:00 7 5 Noroeste 19 Noroeste 0 -- -- 97
2020-01-10 20:00:00 7.1 8 Noroeste 21 Noroeste 1.6 -- -- 96
2020-01-10 19:00:00 7.6 9 Norte 15 Noroeste 0 -- -- 92
2020-01-10 18:00:00 7.8 9 Norte 19 Norte 0 -- -- 89
2020-01-10 17:00:00 8.3 11 Norte 35 Noroeste 0.2 -- -- 85
2020-01-10 16:00:00 8.8 7 Norte 16 Norte 0.2 -- -- 87
2020-01-10 15:00:00 8.2 3 Sur 8 Este 0.4 -- -- 96
2020-01-10 14:00:00 7.6 3 Sur 11 Norte 0.4 -- -- 95
2020-01-10 13:00:00 7.4 7 Norte 23 Norte 2.2 -- -- 95
2020-01-10 12:00:00 7.3 2 Sudeste 8 Sur 1.6 -- -- 98
2020-01-10 11:00:00 6.6 4 Sudeste 10 Norte 2.6 -- -- 98
2020-01-10 10:00:00 6 5 Sur 15 Noroeste 2.4 -- -- 98
2020-01-10 09:00:00 5.7 7 Norte 17 Noroeste 2.8 -- -- 96
2020-01-10 08:00:00 5.3 4 Nordeste 9 Sur 0.6 -- -- 96
2020-01-10 07:00:00 5.5 7 Sur 16 Noroeste 2.4 -- -- 93
2020-01-10 06:00:00 6.3 12 Norte 27 Norte 1.6 -- -- 94
2020-01-10 05:00:00 6.5 3 Sur 12 Oeste 1 -- -- 94
2020-01-10 04:00:00 6.7 5 Sur 27 Norte 2 -- -- 91
2020-01-10 03:00:00 7.6 5 Sur 12 Sudoeste 0.4 -- -- 90
2020-01-10 02:00:00 7.3 3 Este 9 Sudoeste 0.6 -- -- 94
2020-01-10 01:00:00 7.4 3 Sudeste 9 Sudoeste 0.6 -- -- 92
2020-01-10 00:00:00 7.8 6 Sudeste 20 Sur 0.8 -- -- 88
2020-01-09 23:00:00 8.9 7 Sur 19 Sur 0.2 -- -- 80
2020-01-09 22:00:00 9.2 4 Sudeste 12 Este 0.6 -- -- 81
2020-01-09 21:00:00 9.7 5 Sur 21 Sudoeste 0 -- -- 83
2020-01-09 20:00:00 10.5 3 Norte 22 Sudoeste 0.2 -- -- 83
2020-01-09 19:00:00 12.4 10 Sudoeste 28 Oeste 0 -- -- 67
2020-01-09 18:00:00 14.1 6 Sur 32 Sudeste 0 -- -- 53
2020-01-09 17:00:00 14.7 14 Sur 51 Sur 0 -- -- 52
2020-01-09 16:00:00 16.1 21 Sudoeste 61 Sur 0 -- -- 46
2020-01-09 15:00:00 16.6 26 Sur 52 Sur 0 -- -- 44
2020-01-09 14:00:00 17.1 19 Sudoeste 45 Sur 0 -- -- 44
2020-01-09 13:00:00 18.3 9 Sur 45 Sudoeste 0 -- -- 41
2020-01-09 12:00:00 15.2 18 Sur 46 Sur 0 -- -- 47
2020-01-09 11:00:00 15.4 13 Sur 36 Sur 0 -- -- 47
2020-01-09 10:00:00 13.2 8 Sudoeste 21 Sur 0 -- -- 51
2020-01-09 09:00:00 13 14 Sur 30 Sur 0 -- -- 53
2020-01-09 08:00:00 13 16 Sur 37 Sur 0 -- -- 53
2020-01-09 07:00:00 13.2 12 Sudoeste 37 Sudoeste 0 -- -- 57
2020-01-09 06:00:00 12.8 8 Sur 30 Sur 0 -- -- 63
2020-01-09 05:00:00 11.9 9 Sudoeste 21 Sur 0 -- -- 63
2020-01-09 04:00:00 10.1 4 Sur 17 Sudoeste 0 -- -- 63
2020-01-09 03:00:00 7.3 5 Sur 18 Sudoeste 0 -- -- 79
2020-01-09 02:00:00 5.5 3 Sur 9 Sur 0 -- -- 94
2020-01-09 01:00:00 5.2 0 Calma 6 Sur 0 -- -- 94
2020-01-09 00:00:00 5.4 0 Calma 7 Sudoeste 0 -- -- 93
2020-01-08 23:00:00 5.3 3 Sur 6 Sur 0 -- -- 94
2020-01-08 22:00:00 5.9 0 Calma 6 Sur 0 -- -- 91
2020-01-08 21:00:00 6.7 5 Sur 6 Sudoeste 0 -- -- 90
2020-01-08 20:00:00 7.4 3 Sur 8 Sur 0 -- -- 86
2020-01-08 19:00:00 8.2 2 Sur 6 Sur 0 -- -- 84
2020-01-08 18:00:00 9.5 3 Sur 8 Sur 0 -- -- 80
2020-01-08 17:00:00 11.6 3 Sur 6 Sur 0 -- -- 73
2020-01-08 16:00:00 14.2 4 Norte 15 Norte 0 -- -- 61
2020-01-08 15:00:00 13.9 10 Norte 17 Norte 0 -- -- 63
2020-01-08 14:00:00 14 6 Norte 9 Norte 0 -- -- 63
2020-01-08 13:00:00 14.2 2 Norte 5 Nordeste 0 -- -- 69
2020-01-08 12:00:00 11.4 4 Sur 7 Sur 0 -- -- 81
2020-01-08 11:00:00 7.4 4 Sur 8 Sur 0 -- -- 99
2020-01-08 10:00:00 4.8 0 Calma 4 Sur 0 -- -- 97
2020-01-08 09:00:00 4.9 0 Calma 5 Sudoeste 0 -- -- 96
2020-01-08 08:00:00 5.2 0 Calma 4 Sur 0 -- -- 96
2020-01-08 07:00:00 5.3 0 Calma 3 Sur 0 -- -- 95
2020-01-08 06:00:00 5.9 2 Sur 5 Sur 0 -- -- 94
2020-01-08 05:00:00 5.8 4 Sur 7 Sur 0 -- -- 95
2020-01-08 04:00:00 5.4 2 Sur 6 Sur 0 -- -- 96
2020-01-08 03:00:00 5.3 2 Sur 4 Sur 0 -- -- 96
2020-01-08 02:00:00 5.2 0 Calma 5 Sur 0 -- -- 96
2020-01-08 01:00:00 5.1 0 Calma 6 Sur 0 -- -- 95
2020-01-08 00:00:00 5.1 4 Sur 6 Sudoeste 0 -- -- 95
2020-01-07 23:00:00 5.3 3 Sur 5 Sur 0 -- -- 94
2020-01-07 22:00:00 5.5 3 Sur 5 Sudoeste 0 -- -- 93
2020-01-07 21:00:00 5.9 3 Sur 6 Sur 0 -- -- 91
2020-01-07 20:00:00 6.4 5 Sur 8 Sur 0 -- -- 91
2020-01-07 19:00:00 7 3 Sur 6 Sur 0 -- -- 88
2020-01-07 18:00:00 8.5 0 Calma 6 Sur 0 -- -- 82
2020-01-07 17:00:00 10.3 3 Sur 14 Norte 0 -- -- 76
2020-01-07 16:00:00 11.7 11 Norte 20 Norte 0 -- -- 68
2020-01-07 15:00:00 11.7 14 Norte 22 Norte 0 -- -- 68
2020-01-07 14:00:00 11.4 12 Norte 22 Norte 0 -- -- 69
2020-01-07 13:00:00 13 4 Sudeste 8 Sur 0 -- -- 63
2020-01-07 12:00:00 10.2 3 Sudeste 5 Sudeste 0 -- -- 79
2020-01-07 11:00:00 7.2 2 Sudeste 6 Sur 0 -- -- 92
2020-01-07 10:00:00 5.5 4 Sur 9 Sur 0 -- -- 91
2020-01-07 09:00:00 5.5 2 Sur 6 Sur 0 -- -- 91
2020-01-07 08:00:00 6.2 3 Norte 7 Sur 0 -- -- 90
2020-01-07 07:00:00 6.1 3 Sudeste 7 Sur 0 -- -- 90
2020-01-07 06:00:00 5.9 3 Sur 9 Sur 0 -- -- 89
2020-01-07 05:00:00 5.3 2 Sur 6 Sudoeste 0 -- -- 91
2020-01-07 04:00:00 6.2 0 Calma 6 Sudoeste 0 -- -- 90
2020-01-07 03:00:00 6.6 2 Sur 6 Sudeste 0 -- -- 90
2020-01-07 02:00:00 6.4 2 Sudeste 9 Sur 0 -- -- 90
2020-01-07 01:00:00 6 3 Sur 9 Sur 0 -- -- 91
2020-01-07 00:00:00 5.6 4 Sur 5 Sur 0 -- -- 91
2020-01-06 23:00:00 6.5 3 Sur 5 Sur 0 -- -- 92
2020-01-06 22:00:00 6.1 3 Sur 12 Sur 0 -- -- 92
2020-01-06 21:00:00 5.1 4 Sur 8 Sudoeste 0 -- -- 95
2020-01-06 20:00:00 5.3 2 Sudoeste 8 Sudeste 0 -- -- 91
2020-01-06 19:00:00 6.1 3 Sur 6 Sur 0 -- -- 89
2020-01-06 18:00:00 7.1 4 Sur 8 Sur 0 -- -- 85
2020-01-06 17:00:00 9.3 0 Calma 17 Norte 0 -- -- 76
2020-01-06 16:00:00 10.9 13 Norte 25 Norte 0 -- -- 68
2020-01-06 15:00:00 11.2 17 Norte 27 Norte 0 -- -- 64
2020-01-06 14:00:00 11.3 12 Norte 19 Norte 0 -- -- 59
2020-01-06 13:00:00 10.2 11 Norte 18 Norte 0 -- -- 62
2020-01-06 12:00:00 10.5 3 Norte 9 Norte 0 -- -- 76
2020-01-06 11:00:00 6.4 4 Norte 9 Norte 0 -- -- 89
2020-01-06 10:00:00 4.7 4 Sur 8 Sur 0 -- -- 84